createdAt,value
2018-09-14T00:00:35.225Z,15.04
2018-09-14T00:03:02.898Z,15.03
2018-09-14T00:05:30.710Z,15.03
2018-09-14T00:07:57.971Z,14.98
2018-09-14T00:10:25.207Z,14.98
2018-09-14T00:12:52.473Z,15.13
2018-09-14T00:15:19.692Z,15.15
2018-09-14T00:17:46.875Z,15.17
2018-09-14T00:20:14.142Z,15.13
2018-09-14T00:22:41.337Z,15.23
2018-09-14T00:25:08.548Z,15.09
2018-09-14T00:27:36.358Z,15.00
2018-09-14T00:30:03.753Z,15.00
2018-09-14T00:32:30.951Z,14.94
2018-09-14T00:34:58.185Z,14.95
2018-09-14T00:37:25.458Z,14.90
2018-09-14T00:39:52.665Z,14.98
2018-09-14T00:42:19.923Z,14.89
2018-09-14T00:44:47.124Z,14.87
2018-09-14T00:47:14.305Z,14.86
2018-09-14T00:49:41.647Z,14.86
2018-09-14T00:52:08.885Z,14.83
2018-09-14T00:54:36.061Z,14.81
2018-09-14T00:57:03.335Z,14.76
2018-09-14T00:59:30.537Z,14.75
2018-09-14T01:01:57.842Z,14.77
2018-09-14T01:04:25.142Z,14.80
2018-09-14T01:06:52.339Z,14.81
2018-09-14T01:09:24.448Z,14.86
2018-09-14T01:11:51.772Z,14.89
2018-09-14T01:14:18.966Z,14.92
2018-09-14T01:16:46.242Z,14.88
2018-09-14T01:19:13.454Z,14.87
2018-09-14T01:21:40.738Z,14.82
2018-09-14T01:24:08.839Z,14.79
2018-09-14T01:26:36.346Z,14.85
2018-09-14T01:29:03.602Z,14.88
2018-09-14T01:31:30.898Z,14.84
2018-09-14T01:33:58.491Z,14.78
2018-09-14T01:36:25.685Z,14.68
2018-09-14T01:38:52.950Z,14.65
2018-09-14T01:41:20.136Z,14.61
2018-09-14T01:43:47.333Z,14.64
2018-09-14T01:46:14.591Z,14.56
2018-09-14T01:48:41.832Z,14.57
2018-09-14T01:51:09.027Z,14.54
2018-09-14T01:53:36.363Z,14.56
2018-09-14T01:56:03.621Z,14.47
2018-09-14T01:58:30.843Z,14.45
2018-09-14T02:00:58.101Z,14.40
2018-09-14T02:03:25.354Z,14.49
2018-09-14T02:05:52.794Z,14.47
2018-09-14T02:08:20.025Z,14.46
2018-09-14T02:10:47.225Z,14.50
2018-09-14T02:13:14.441Z,14.41
2018-09-14T02:15:41.702Z,14.49
2018-09-14T02:18:08.927Z,14.52
2018-09-14T02:20:36.160Z,14.49
2018-09-14T02:23:03.409Z,14.42
2018-09-14T02:25:30.935Z,14.34
2018-09-14T02:27:58.170Z,14.41
2018-09-14T02:30:25.414Z,14.52
2018-09-14T02:32:52.638Z,14.44
2018-09-14T02:35:19.885Z,14.49
2018-09-14T02:37:47.546Z,14.49
2018-09-14T02:40:14.791Z,14.50
2018-09-14T02:42:42.000Z,14.50
2018-09-14T02:45:09.273Z,14.51
2018-09-14T02:47:36.511Z,14.46
2018-09-14T02:50:03.793Z,14.46
2018-09-14T02:52:31.093Z,14.43
2018-09-14T02:54:58.425Z,14.55
2018-09-14T02:57:25.678Z,14.43
2018-09-14T02:59:53.046Z,14.39
2018-09-14T03:02:20.365Z,14.55
2018-09-14T03:04:47.585Z,14.55
2018-09-14T03:07:14.870Z,14.47
2018-09-14T03:09:42.075Z,14.52
2018-09-14T03:12:09.377Z,14.54
2018-09-14T03:14:36.593Z,14.58
2018-09-14T03:17:03.855Z,14.48
2018-09-14T03:19:31.097Z,14.50
2018-09-14T03:21:58.391Z,14.54
2018-09-14T03:24:25.602Z,14.51
2018-09-14T03:26:52.859Z,14.49
2018-09-14T03:29:20.192Z,14.43
2018-09-14T03:31:47.402Z,14.41
2018-09-14T03:34:14.622Z,14.46
2018-09-14T03:36:42.328Z,14.46
2018-09-14T03:39:10.338Z,14.45
2018-09-14T03:41:37.602Z,14.47
2018-09-14T03:44:04.924Z,14.38
2018-09-14T03:46:32.177Z,14.37
2018-09-14T03:48:59.434Z,14.30
2018-09-14T03:51:26.681Z,14.38
2018-09-14T03:53:53.941Z,14.28
2018-09-14T03:56:21.290Z,14.30
2018-09-14T03:58:48.715Z,14.24
2018-09-14T04:01:15.977Z,14.22
2018-09-14T04:03:43.224Z,14.18
2018-09-14T04:06:10.491Z,14.15
2018-09-14T04:08:37.745Z,14.13
2018-09-14T04:11:05.038Z,14.12
2018-09-14T04:13:32.390Z,14.14
2018-09-14T04:16:00.740Z,14.17
2018-09-14T04:18:28.064Z,14.19
2018-09-14T04:20:55.352Z,14.25
2018-09-14T04:23:22.638Z,14.19
2018-09-14T04:25:49.956Z,14.15
2018-09-14T04:28:17.258Z,14.17
2018-09-14T04:30:44.502Z,14.19
2018-09-14T04:33:11.760Z,14.19
2018-09-14T04:35:39.067Z,14.16
2018-09-14T04:38:06.428Z,14.15
2018-09-14T04:40:33.632Z,14.15
2018-09-14T04:43:00.898Z,14.08
2018-09-14T04:45:28.093Z,14.12
2018-09-14T04:47:55.325Z,14.07
2018-09-14T04:50:22.967Z,13.98
2018-09-14T04:52:50.213Z,13.92
2018-09-14T04:55:17.383Z,13.96
2018-09-14T04:57:45.138Z,14.03
2018-09-14T05:00:12.382Z,14.05
2018-09-14T05:02:39.614Z,14.12
2018-09-14T05:05:06.993Z,14.20
2018-09-14T05:07:34.302Z,14.24
2018-09-14T05:10:01.523Z,14.37
2018-09-14T05:12:28.785Z,14.33
2018-09-14T05:14:55.989Z,14.42
2018-09-14T05:17:23.217Z,14.38
2018-09-14T05:19:50.429Z,14.48
2018-09-14T05:22:17.609Z,14.68
2018-09-14T05:24:44.789Z,14.61
2018-09-14T05:27:12.046Z,14.59
2018-09-14T05:29:39.365Z,14.69
2018-09-14T05:32:06.600Z,14.62
2018-09-14T05:34:33.862Z,14.51
2018-09-14T05:37:01.070Z,14.57
2018-09-14T05:39:28.299Z,14.61
2018-09-14T05:41:55.636Z,14.68
2018-09-14T05:44:22.854Z,14.65
2018-09-14T05:46:50.116Z,14.67
2018-09-14T05:49:17.374Z,14.75
2018-09-14T05:51:44.592Z,14.78
2018-09-14T05:54:11.874Z,14.78
2018-09-14T05:56:40.878Z,14.88
2018-09-14T05:59:08.190Z,15.05
2018-09-14T06:01:35.442Z,15.12
2018-09-14T06:04:02.793Z,15.14
2018-09-14T06:06:30.200Z,15.19
2018-09-14T06:08:57.435Z,15.26
2018-09-14T06:11:24.769Z,15.31
2018-09-14T06:13:52.116Z,15.42
2018-09-14T06:16:19.413Z,15.47
2018-09-14T06:18:46.960Z,15.53
2018-09-14T06:21:14.208Z,15.68
2018-09-14T06:23:41.427Z,15.59
2018-09-14T06:26:08.795Z,15.60
2018-09-14T06:28:36.055Z,15.70
2018-09-14T06:31:03.306Z,15.81
2018-09-14T06:33:31.704Z,15.81
2018-09-14T06:35:58.960Z,15.95
2018-09-14T06:38:26.183Z,16.01
2018-09-14T06:40:53.427Z,15.97
2018-09-14T06:43:20.616Z,16.06
2018-09-14T06:45:47.856Z,15.94
2018-09-14T06:48:15.074Z,15.92
2018-09-14T06:50:42.283Z,15.90
2018-09-14T06:53:09.543Z,16.02
2018-09-14T06:55:36.786Z,16.11
2018-09-14T06:58:04.039Z,16.10
2018-09-14T07:00:31.322Z,16.14
2018-09-14T07:02:58.656Z,16.28
2018-09-14T07:05:26.031Z,16.22
2018-09-14T07:07:53.313Z,16.36
2018-09-14T07:10:20.826Z,16.33
2018-09-14T07:12:48.070Z,16.39
2018-09-14T07:15:15.311Z,16.57
2018-09-14T07:17:42.603Z,16.69
2018-09-14T07:20:10.163Z,16.87
2018-09-14T07:22:37.541Z,17.04
2018-09-14T07:25:04.837Z,17.47
2018-09-14T07:27:32.111Z,17.58
2018-09-14T07:29:59.559Z,17.94
2018-09-14T07:32:26.935Z,18.28
2018-09-14T07:34:54.685Z,18.58
2018-09-14T07:37:22.081Z,18.60
2018-09-14T07:39:49.537Z,18.63
2018-09-14T07:42:16.879Z,18.76
2018-09-14T07:44:44.164Z,18.84
2018-09-14T07:47:11.638Z,19.00
2018-09-14T07:49:38.889Z,19.08
2018-09-14T07:52:06.529Z,19.48
2018-09-14T07:54:33.850Z,19.56
2018-09-14T07:57:01.133Z,19.75
2018-09-14T07:59:28.400Z,19.25
2018-09-14T08:01:55.729Z,19.09
2018-09-14T08:04:23.036Z,19.61
2018-09-14T08:06:50.246Z,20.30
2018-09-14T08:09:17.553Z,20.55
2018-09-14T08:11:44.757Z,20.70
2018-09-14T08:14:11.973Z,20.84
2018-09-14T08:16:39.209Z,21.11
2018-09-14T08:19:06.893Z,20.91
2018-09-14T08:21:34.378Z,20.39
2018-09-14T08:24:01.649Z,20.24
2018-09-14T08:26:28.906Z,19.93
2018-09-14T08:28:56.115Z,19.91
2018-09-14T08:31:23.559Z,19.59
2018-09-14T08:33:50.797Z,19.04
2018-09-14T08:36:17.989Z,18.62
2018-09-14T08:38:45.240Z,18.68
2018-09-14T08:41:12.982Z,18.73
2018-09-14T08:43:40.176Z,18.58
2018-09-14T08:46:07.493Z,18.61
2018-09-14T08:48:34.713Z,18.79
2018-09-14T08:51:01.987Z,18.73
2018-09-14T08:53:29.334Z,18.93
2018-09-14T08:55:56.605Z,18.89
2018-09-14T08:58:23.858Z,19.24
2018-09-14T09:00:51.182Z,19.68
2018-09-14T09:03:18.481Z,19.22
2018-09-14T09:05:45.756Z,19.16
2018-09-14T09:08:13.041Z,19.63
2018-09-14T09:10:40.335Z,19.29
2018-09-14T09:13:07.541Z,19.52
2018-09-14T09:15:34.916Z,19.72
2018-09-14T09:18:02.150Z,20.79
2018-09-14T09:20:29.389Z,21.19
2018-09-14T09:22:56.645Z,21.04
2018-09-14T09:25:23.863Z,21.29
2018-09-14T09:27:51.126Z,21.83
2018-09-14T09:30:18.460Z,21.72
2018-09-14T09:32:45.676Z,22.32
2018-09-14T09:35:12.951Z,22.29
2018-09-14T09:37:40.272Z,21.97
2018-09-14T09:40:07.541Z,20.84
2018-09-14T09:42:34.759Z,20.17
2018-09-14T09:45:02.094Z,20.13
2018-09-14T09:47:29.385Z,20.11
2018-09-14T09:49:56.618Z,20.07
2018-09-14T09:52:23.912Z,19.94
2018-09-14T09:54:51.139Z,19.72
2018-09-14T09:57:18.369Z,19.67
2018-09-14T09:59:45.618Z,19.31
2018-09-14T10:02:18.578Z,19.13
2018-09-14T10:04:51.622Z,18.87
2018-09-14T10:07:18.828Z,19.16
2018-09-14T10:09:46.050Z,19.46
2018-09-14T10:12:13.301Z,19.77
2018-09-14T10:14:40.469Z,19.88
2018-09-14T10:17:07.673Z,20.11
2018-09-14T10:19:35.246Z,20.54
2018-09-14T10:22:02.434Z,20.65
2018-09-14T10:24:29.618Z,20.75
2018-09-14T10:26:56.853Z,20.37
2018-09-14T10:29:24.037Z,20.38
2018-09-14T10:31:51.247Z,20.49
2018-09-14T10:34:18.489Z,20.55
2018-09-14T10:36:45.677Z,20.62
2018-09-14T10:39:12.891Z,20.58
2018-09-14T10:41:40.153Z,20.55
2018-09-14T10:44:07.353Z,20.38
2018-09-14T10:46:34.626Z,20.34
2018-09-14T10:49:01.934Z,20.37
2018-09-14T10:51:29.155Z,20.46
2018-09-14T10:53:56.349Z,20.56
2018-09-14T10:56:23.626Z,20.66
2018-09-14T10:58:50.815Z,20.88
2018-09-14T11:01:17.989Z,20.84
2018-09-14T11:03:45.399Z,20.59
2018-09-14T11:06:13.646Z,20.47
2018-09-14T11:08:40.804Z,20.52
2018-09-14T11:11:08.145Z,20.40
2018-09-14T11:13:35.348Z,20.17
2018-09-14T11:16:02.562Z,20.24
2018-09-14T11:18:29.865Z,20.47
2018-09-14T11:20:57.062Z,20.43
2018-09-14T11:23:24.257Z,20.73
2018-09-14T11:25:51.493Z,20.98
2018-09-14T11:28:18.721Z,21.34
2018-09-14T11:30:45.916Z,21.46
2018-09-14T11:33:14.181Z,21.29
2018-09-14T11:35:41.372Z,21.85
2018-09-14T11:38:08.627Z,22.03
2018-09-14T11:40:35.817Z,22.14
2018-09-14T11:43:03.165Z,21.92
2018-09-14T11:45:30.360Z,21.78
2018-09-14T11:47:57.598Z,21.46
2018-09-14T11:50:24.870Z,21.61
2018-09-14T11:52:52.359Z,21.73
2018-09-14T11:55:20.039Z,21.77
2018-09-14T11:57:47.229Z,21.69
2018-09-14T12:00:14.470Z,21.93
2018-09-14T12:02:42.962Z,22.06
2018-09-14T12:05:10.564Z,22.15
2018-09-14T12:07:39.186Z,22.51
2018-09-14T12:10:07.674Z,22.47
2018-09-14T12:12:34.904Z,22.97
2018-09-14T12:15:02.125Z,23.18
2018-09-14T12:17:29.877Z,23.34
2018-09-14T12:19:57.449Z,22.69
2018-09-14T12:22:28.010Z,22.89
2018-09-14T12:24:55.306Z,22.64
2018-09-14T12:27:23.296Z,22.17
2018-09-14T12:29:50.528Z,22.10
2018-09-14T12:32:17.865Z,21.61
2018-09-14T12:34:45.931Z,21.56
2018-09-14T12:37:13.137Z,21.90
2018-09-14T12:39:41.912Z,21.76
2018-09-14T12:42:09.199Z,21.88
2018-09-14T12:44:36.429Z,22.00
2018-09-14T12:47:03.778Z,22.09
2018-09-14T12:49:31.193Z,21.77
2018-09-14T12:51:58.425Z,21.88
2018-09-14T12:54:25.694Z,22.04
2018-09-14T12:56:52.911Z,22.07
2018-09-14T12:59:20.105Z,21.85
2018-09-14T13:01:47.398Z,21.81
2018-09-14T13:04:14.659Z,21.70
2018-09-14T13:06:41.805Z,21.96
2018-09-14T13:09:10.510Z,21.49
2018-09-14T13:11:38.188Z,21.42
2018-09-14T13:14:05.474Z,21.49
2018-09-14T13:16:32.728Z,21.25
2018-09-14T13:18:59.916Z,21.79
2018-09-14T13:21:27.118Z,21.71
2018-09-14T13:23:54.349Z,21.82
2018-09-14T13:26:21.555Z,21.84
2018-09-14T13:28:48.746Z,21.69
2018-09-14T13:31:15.968Z,21.73
2018-09-14T13:33:43.267Z,21.91
2018-09-14T13:36:10.431Z,21.73
2018-09-14T13:38:37.684Z,21.83
2018-09-14T13:41:04.997Z,21.89
2018-09-14T13:43:32.211Z,21.92
2018-09-14T13:45:59.474Z,21.88
2018-09-14T13:48:26.774Z,21.92
2018-09-14T13:50:53.990Z,21.97
2018-09-14T13:53:21.219Z,21.93
2018-09-14T13:55:48.480Z,21.87
2018-09-14T13:58:15.692Z,21.79
2018-09-14T14:00:42.933Z,21.61
2018-09-14T14:03:20.554Z,21.63
2018-09-14T14:05:47.811Z,21.54
2018-09-14T14:08:14.996Z,21.28
2018-09-14T14:10:42.282Z,21.13
2018-09-14T14:13:09.828Z,20.75
2018-09-14T14:15:37.063Z,21.04
2018-09-14T14:18:05.429Z,20.92
2018-09-14T14:20:32.663Z,21.28
2018-09-14T14:23:00.080Z,21.49
2018-09-14T14:25:27.477Z,21.61
2018-09-14T14:27:54.960Z,21.64
2018-09-14T14:30:22.182Z,21.65
2018-09-14T14:32:49.437Z,21.21
2018-09-14T14:35:16.690Z,21.39
2018-09-14T14:37:44.002Z,21.40
2018-09-14T14:40:11.197Z,21.57
2018-09-14T14:42:38.516Z,21.63
2018-09-14T14:45:05.733Z,21.77
2018-09-14T14:47:32.930Z,21.37
2018-09-14T14:50:00.289Z,21.33
2018-09-14T14:52:27.504Z,21.38
2018-09-14T14:54:54.718Z,21.11
2018-09-14T14:57:21.971Z,20.87
2018-09-14T14:59:49.215Z,20.98
2018-09-14T15:02:16.393Z,20.68
2018-09-14T15:04:43.658Z,20.56
2018-09-14T15:07:10.953Z,20.48
2018-09-14T15:09:38.137Z,20.46
2018-09-14T15:12:05.858Z,20.49
2018-09-14T15:14:33.323Z,20.45
2018-09-14T15:17:00.502Z,20.38
2018-09-14T15:19:27.770Z,20.20
2018-09-14T15:21:55.058Z,20.23
2018-09-14T15:24:22.538Z,20.36
2018-09-14T15:26:49.752Z,20.69
2018-09-14T15:29:16.995Z,20.78
2018-09-14T15:31:45.929Z,20.97
2018-09-14T15:34:13.929Z,20.73
2018-09-14T15:36:41.182Z,20.62
2018-09-14T15:39:09.569Z,20.74
2018-09-14T15:41:36.767Z,20.79
2018-09-14T15:44:04.046Z,20.85
2018-09-14T15:46:31.222Z,20.62
2018-09-14T15:48:58.425Z,20.49
2018-09-14T15:51:25.661Z,20.39
2018-09-14T15:53:52.857Z,20.24
2018-09-14T15:56:23.879Z,20.21
2018-09-14T15:58:51.164Z,20.05
2018-09-14T16:01:18.344Z,19.88
2018-09-14T16:03:45.562Z,19.72
2018-09-14T16:06:12.906Z,19.60
2018-09-14T16:08:40.121Z,19.46
2018-09-14T16:11:07.380Z,19.32
2018-09-14T16:13:34.696Z,19.22
2018-09-14T16:16:01.829Z,19.09
2018-09-14T16:18:29.002Z,18.96
2018-09-14T16:20:56.229Z,18.72
2018-09-14T16:23:23.424Z,18.54
2018-09-14T16:25:50.896Z,18.47
2018-09-14T16:28:18.133Z,18.35
2018-09-14T16:30:46.420Z,18.30
2018-09-14T16:33:13.603Z,18.19
2018-09-14T16:35:40.833Z,18.17
2018-09-14T16:38:08.383Z,18.08
2018-09-14T16:40:36.133Z,17.98
2018-09-14T16:43:03.460Z,17.86
2018-09-14T16:45:30.650Z,17.77
2018-09-14T16:47:57.857Z,17.69
2018-09-14T16:50:25.141Z,17.62
2018-09-14T16:52:52.269Z,17.58
2018-09-14T16:55:19.567Z,17.55
2018-09-14T16:57:46.882Z,17.51
2018-09-14T17:00:15.108Z,17.45
2018-09-14T17:02:42.317Z,17.38
2018-09-14T17:05:10.575Z,17.29
2018-09-14T17:07:37.786Z,17.20
2018-09-14T17:10:06.050Z,17.10
2018-09-14T17:12:33.299Z,17.03
2018-09-14T17:15:01.408Z,16.91
2018-09-14T17:17:28.625Z,16.87
2018-09-14T17:19:55.935Z,16.81
2018-09-14T17:22:23.154Z,16.76
2018-09-14T17:24:56.440Z,16.69
2018-09-14T17:27:23.711Z,16.60
2018-09-14T17:29:50.900Z,16.49
2018-09-14T17:32:18.197Z,16.39
2018-09-14T17:34:46.454Z,16.29
2018-09-14T17:37:13.811Z,16.17
2018-09-14T17:39:41.046Z,16.09
2018-09-14T17:42:08.324Z,16.03
2018-09-14T17:44:35.525Z,15.95
2018-09-14T17:47:02.871Z,15.88
2018-09-14T17:49:30.065Z,15.86
2018-09-14T17:51:57.245Z,15.76
2018-09-14T17:54:24.490Z,15.70
2018-09-14T17:56:51.648Z,15.61
2018-09-14T17:59:19.716Z,15.53
2018-09-14T18:01:46.992Z,15.45
2018-09-14T18:04:14.229Z,15.37
2018-09-14T18:06:41.445Z,15.30
2018-09-14T18:09:10.423Z,15.25
2018-09-14T18:11:37.880Z,15.17
2018-09-14T18:14:05.137Z,15.11
2018-09-14T18:16:32.513Z,15.05
2018-09-14T18:18:59.736Z,15.01
2018-09-14T18:21:26.971Z,14.94
2018-09-14T18:23:54.255Z,14.86
2018-09-14T18:26:21.425Z,14.76
2018-09-14T18:28:48.808Z,14.76
2018-09-14T18:31:16.055Z,14.74
2018-09-14T18:33:43.227Z,14.77
2018-09-14T18:36:10.441Z,14.84
2018-09-14T18:38:37.621Z,14.85
2018-09-14T18:41:04.789Z,14.96
2018-09-14T18:43:31.954Z,15.07
2018-09-14T18:45:59.161Z,15.01
2018-09-14T18:48:26.383Z,15.01
2018-09-14T18:50:53.677Z,15.00
2018-09-14T18:53:20.888Z,14.91
2018-09-14T18:55:48.215Z,14.85
2018-09-14T18:58:15.446Z,14.90
2018-09-14T19:00:42.633Z,14.93
2018-09-14T19:03:09.859Z,14.94
2018-09-14T19:05:37.045Z,14.92
2018-09-14T19:08:04.280Z,14.81
2018-09-14T19:10:31.561Z,14.77
2018-09-14T19:12:58.811Z,14.74
2018-09-14T19:15:26.091Z,14.76
2018-09-14T19:17:53.550Z,14.72
2018-09-14T19:20:20.867Z,14.68
2018-09-14T19:22:48.122Z,14.70
2018-09-14T19:25:15.425Z,14.68
2018-09-14T19:27:42.676Z,14.58
2018-09-14T19:30:10.147Z,14.54
2018-09-14T19:32:37.563Z,14.49
2018-09-14T19:35:04.741Z,14.54
2018-09-14T19:37:31.942Z,14.49
2018-09-14T19:39:59.229Z,14.44
2018-09-14T19:42:26.433Z,14.41
2018-09-14T19:44:53.635Z,14.45
2018-09-14T19:47:20.911Z,14.41
2018-09-14T19:49:48.116Z,14.45
2018-09-14T19:52:16.306Z,14.39
2018-09-14T19:54:43.530Z,14.36
2018-09-14T19:57:10.733Z,14.37
2018-09-14T19:59:37.957Z,14.31
2018-09-14T20:02:05.259Z,14.32
2018-09-14T20:04:32.448Z,14.23
2018-09-14T20:06:59.649Z,14.23
2018-09-14T20:09:26.937Z,14.15
2018-09-14T20:11:54.105Z,14.13
2018-09-14T20:14:21.477Z,14.12
2018-09-14T20:16:48.691Z,14.13
2018-09-14T20:19:15.907Z,14.14
2018-09-14T20:21:43.094Z,14.16
2018-09-14T20:24:10.466Z,14.18
2018-09-14T20:26:38.531Z,14.28
2018-09-14T20:29:05.770Z,14.34
2018-09-14T20:31:33.058Z,14.37
2018-09-14T20:34:00.256Z,14.34
2018-09-14T20:36:27.472Z,14.38
2018-09-14T20:38:54.689Z,14.40
2018-09-14T20:41:21.878Z,14.48
2018-09-14T20:43:49.058Z,14.46
2018-09-14T20:46:17.159Z,14.55
2018-09-14T20:48:44.345Z,14.58
2018-09-14T20:51:11.522Z,14.73
2018-09-14T20:53:38.791Z,14.72
2018-09-14T20:56:06.001Z,14.74
2018-09-14T20:58:33.179Z,14.84
2018-09-14T21:01:00.401Z,14.95
2018-09-14T21:03:28.685Z,15.00
2018-09-14T21:05:55.943Z,15.07
2018-09-14T21:08:23.169Z,15.06
2018-09-14T21:10:50.346Z,15.02
2018-09-14T21:13:17.599Z,15.09
2018-09-14T21:15:44.883Z,15.11
2018-09-14T21:18:12.066Z,15.13
2018-09-14T21:20:39.294Z,15.18
2018-09-14T21:23:06.569Z,15.21
2018-09-14T21:25:33.726Z,15.24
2018-09-14T21:28:00.908Z,15.26
2018-09-14T21:30:28.130Z,15.24
2018-09-14T21:32:55.363Z,15.31
2018-09-14T21:35:22.541Z,15.34
2018-09-14T21:37:49.813Z,15.35
2018-09-14T21:40:17.078Z,15.33
2018-09-14T21:42:44.362Z,15.34
2018-09-14T21:45:11.579Z,15.36
2018-09-14T21:47:38.731Z,15.37
2018-09-14T21:50:05.957Z,15.46
2018-09-14T21:52:33.202Z,15.44
2018-09-14T21:55:00.521Z,15.47
2018-09-14T21:57:27.713Z,15.48
2018-09-14T21:59:55.023Z,15.49
2018-09-14T22:02:22.209Z,15.49
2018-09-14T22:04:49.451Z,15.46
2018-09-14T22:07:16.706Z,15.39
2018-09-14T22:09:43.896Z,15.46
2018-09-14T22:12:11.067Z,15.43
2018-09-14T22:14:38.325Z,15.47
2018-09-14T22:17:05.506Z,15.50
2018-09-14T22:19:32.681Z,15.50
2018-09-14T22:21:59.952Z,15.49
2018-09-14T22:24:27.098Z,15.54
2018-09-14T22:26:54.250Z,15.54
2018-09-14T22:29:21.540Z,15.59
2018-09-14T22:31:48.705Z,15.62
2018-09-14T22:34:15.968Z,15.67
2018-09-14T22:36:44.030Z,15.70
2018-09-14T22:39:12.411Z,15.74
2018-09-14T22:41:39.601Z,15.73
2018-09-14T22:44:06.943Z,15.78
2018-09-14T22:46:34.113Z,15.83
2018-09-14T22:49:01.369Z,15.83
2018-09-14T22:51:28.604Z,15.83
2018-09-14T22:53:55.796Z,15.87
2018-09-14T22:56:22.978Z,15.86
2018-09-14T22:58:50.226Z,15.82
2018-09-14T23:01:18.655Z,15.80
2018-09-14T23:03:46.748Z,15.75
2018-09-14T23:06:13.993Z,15.72
2018-09-14T23:08:41.172Z,15.66
2018-09-14T23:11:08.693Z,15.66
2018-09-14T23:13:35.942Z,15.66
2018-09-14T23:16:03.112Z,15.67
2018-09-14T23:18:31.152Z,15.65
2018-09-14T23:20:58.956Z,15.60
2018-09-14T23:23:26.150Z,15.59
2018-09-14T23:25:56.795Z,15.53
2018-09-14T23:28:23.988Z,15.51
2018-09-14T23:30:51.265Z,15.54
2018-09-14T23:33:18.431Z,15.52
2018-09-14T23:35:45.702Z,15.51
2018-09-14T23:38:12.903Z,15.44
2018-09-14T23:40:40.077Z,15.55
2018-09-14T23:43:07.438Z,15.47
2018-09-14T23:45:34.698Z,15.47
2018-09-14T23:48:01.893Z,15.37
2018-09-14T23:50:29.167Z,15.28
2018-09-14T23:52:56.334Z,15.16
2018-09-14T23:55:23.505Z,15.11
2018-09-14T23:57:50.722Z,15.05
